createdAt,value
2022-11-01T00:00:09.450Z,11.38
2022-11-01T00:02:45.235Z,9.43
2022-11-01T00:05:13.874Z,11.75
2022-11-01T00:07:43.590Z,12.32
2022-11-01T00:10:11.801Z,10.77
2022-11-01T00:12:41.241Z,8.35
2022-11-01T00:15:10.458Z,14.25
2022-11-01T00:17:38.814Z,9.25
2022-11-01T00:20:08.292Z,10.00
2022-11-01T00:22:37.207Z,10.77
2022-11-01T00:25:08.141Z,9.00
2022-11-01T00:27:37.326Z,8.50
2022-11-01T00:30:07.635Z,11.85
2022-11-01T00:32:36.338Z,9.85
2022-11-01T00:35:05.961Z,15.95
2022-11-01T00:40:03.349Z,10.18
2022-11-01T00:42:33.435Z,10.30
2022-11-01T00:45:02.610Z,10.50
2022-11-01T00:47:30.868Z,14.77
2022-11-01T00:49:59.581Z,13.15
2022-11-01T00:52:27.837Z,10.70
2022-11-01T00:54:58.016Z,16.27
2022-11-01T00:57:26.327Z,11.25
2022-11-01T00:59:55.952Z,8.82
2022-11-01T01:02:24.448Z,14.02
2022-11-01T01:04:53.478Z,19.35
2022-11-01T01:07:22.172Z,13.43
2022-11-01T01:09:50.472Z,7.07
2022-11-01T01:12:18.827Z,10.48
2022-11-01T01:14:47.719Z,10.63
2022-11-01T01:17:17.510Z,9.63
2022-11-01T01:19:45.889Z,12.23
2022-11-01T01:22:15.087Z,12.40
2022-11-01T01:24:47.849Z,9.73
2022-11-01T01:27:16.946Z,9.27
2022-11-01T01:29:46.237Z,11.45
2022-11-01T01:32:15.205Z,11.73
2022-11-01T01:34:45.519Z,11.70
2022-11-01T01:37:16.119Z,11.48
2022-11-01T01:39:45.500Z,14.38
2022-11-01T01:42:27.988Z,11.07
2022-11-01T01:45:28.318Z,12.80
2022-11-01T01:48:00.130Z,5.65
2022-11-01T01:50:34.240Z,11.55
2022-11-01T01:53:06.129Z,10.65
2022-11-01T01:55:39.599Z,11.55
2022-11-01T01:58:11.648Z,6.45
2022-11-01T02:00:41.721Z,10.52
2022-11-01T02:03:10.147Z,8.73
2022-11-01T02:05:47.760Z,8.40
2022-11-01T02:08:26.757Z,8.80
2022-11-01T02:10:57.581Z,10.00
2022-11-01T02:13:26.469Z,6.00
2022-11-01T02:16:33.179Z,9.70
2022-11-01T02:19:23.247Z,13.98
2022-11-01T02:22:03.149Z,6.85
2022-11-01T02:25:11.334Z,8.23
2022-11-01T02:28:04.509Z,6.45
2022-11-01T02:30:43.076Z,8.88
2022-11-01T02:33:22.079Z,12.25
2022-11-01T02:35:58.213Z,12.70
2022-11-01T02:38:30.544Z,6.40
2022-11-01T02:41:09.806Z,9.05
2022-11-01T02:43:46.266Z,10.80
2022-11-01T02:46:44.366Z,9.55
2022-11-01T02:49:17.530Z,9.00
2022-11-01T02:51:47.677Z,8.88
2022-11-01T02:54:22.159Z,8.43
2022-11-01T02:56:51.828Z,6.93
2022-11-01T02:59:25.659Z,8.32
2022-11-01T03:01:59.403Z,9.40
2022-11-01T03:04:29.606Z,9.13
2022-11-01T03:07:03.495Z,8.93
2022-11-01T03:09:33.622Z,10.23
2022-11-01T03:12:05.648Z,9.02
2022-11-01T03:14:43.333Z,14.98
2022-11-01T03:17:18.411Z,7.63
2022-11-01T03:19:52.732Z,8.43
2022-11-01T03:22:27.396Z,9.98
2022-11-01T03:25:05.544Z,10.93
2022-11-01T03:27:36.914Z,8.80
2022-11-01T03:30:07.928Z,12.15
2022-11-01T03:32:44.283Z,10.15
2022-11-01T03:35:19.174Z,8.50
2022-11-01T03:37:50.706Z,13.95
2022-11-01T03:40:20.285Z,11.25
2022-11-01T03:42:51.970Z,10.18
2022-11-01T03:48:00.314Z,12.70
2022-11-01T03:50:31.036Z,8.07
2022-11-01T03:53:00.218Z,11.85
2022-11-01T03:55:28.671Z,6.95
2022-11-01T03:58:00.008Z,9.43
2022-11-01T04:00:31.778Z,7.18
2022-11-01T04:03:01.721Z,10.18
2022-11-01T04:05:34.176Z,6.80
2022-11-01T04:08:03.048Z,11.75
2022-11-01T04:10:31.651Z,11.33
2022-11-01T04:13:01.369Z,8.23
2022-11-01T04:15:49.507Z,9.63
2022-11-01T04:18:37.841Z,11.95
2022-11-01T04:21:10.662Z,10.05
2022-11-01T04:23:39.410Z,8.07
2022-11-01T04:26:08.709Z,9.37
2022-11-01T04:28:37.187Z,8.43
2022-11-01T04:31:06.428Z,8.93
2022-11-01T04:33:34.935Z,10.03
2022-11-01T04:36:08.874Z,8.23
2022-11-01T04:38:37.867Z,7.75
2022-11-01T04:41:06.629Z,7.97
2022-11-01T04:43:35.000Z,12.67
2022-11-01T04:46:04.290Z,8.18
2022-11-01T04:48:33.196Z,13.25
2022-11-01T04:53:35.718Z,13.85
2022-11-01T04:56:06.119Z,9.52
2022-11-01T04:58:35.126Z,8.10
2022-11-01T05:01:06.192Z,9.27
2022-11-01T05:03:35.228Z,11.07
2022-11-01T05:06:03.612Z,9.47
2022-11-01T05:08:32.590Z,10.70
2022-11-01T05:11:03.393Z,18.88
2022-11-01T05:13:31.580Z,8.65
2022-11-01T05:16:18.751Z,9.00
2022-11-01T05:18:48.727Z,9.30
2022-11-01T05:21:17.524Z,13.15
2022-11-01T05:23:48.218Z,9.60
2022-11-01T05:26:17.854Z,15.23
2022-11-01T05:31:14.804Z,9.98
2022-11-01T05:33:43.461Z,8.93
2022-11-01T05:36:12.280Z,18.27
2022-11-01T05:38:40.970Z,8.90
2022-11-01T05:41:10.103Z,10.15
2022-11-01T05:43:40.787Z,12.00
2022-11-01T05:46:09.657Z,9.23
2022-11-01T05:48:38.241Z,7.13
2022-11-01T05:51:07.224Z,9.80
2022-11-01T05:53:36.057Z,8.45
2022-11-01T05:56:04.564Z,11.23
2022-11-01T05:58:32.893Z,7.88
2022-11-01T06:01:04.149Z,8.32
2022-11-01T06:03:33.835Z,10.02
2022-11-01T06:08:31.361Z,7.82
2022-11-01T06:11:03.784Z,7.60
2022-11-01T06:13:34.454Z,13.35
2022-11-01T06:16:06.508Z,11.88
2022-11-01T06:18:35.483Z,11.73
2022-11-01T06:21:05.434Z,10.60
2022-11-01T06:23:33.703Z,11.27
2022-11-01T06:26:03.225Z,8.98
2022-11-01T06:28:31.865Z,10.35
2022-11-01T06:31:02.020Z,12.43
2022-11-01T06:33:33.119Z,12.88
2022-11-01T06:36:03.594Z,7.18
2022-11-01T06:38:32.096Z,11.25
2022-11-01T06:41:00.416Z,10.65
2022-11-01T06:43:31.146Z,12.18
2022-11-01T06:46:03.228Z,8.15
2022-11-01T06:48:33.432Z,12.00
2022-11-01T06:51:03.493Z,17.40
2022-11-01T06:53:32.104Z,6.50
2022-11-01T06:56:03.002Z,6.22
2022-11-01T06:58:31.340Z,11.40
2022-11-01T07:01:02.526Z,7.95
2022-11-01T07:03:44.090Z,10.40
2022-11-01T07:06:13.026Z,9.52
2022-11-01T07:08:42.057Z,8.33
2022-11-01T07:11:10.370Z,5.50
2022-11-01T07:13:39.046Z,9.10
2022-11-01T07:16:08.617Z,6.97
2022-11-01T07:18:39.086Z,11.13
2022-11-01T07:21:07.714Z,7.85
2022-11-01T07:23:36.133Z,11.07
2022-11-01T07:26:05.308Z,6.05
2022-11-01T07:28:34.062Z,8.07
2022-11-01T07:31:02.697Z,5.75
2022-11-01T07:33:31.393Z,9.82
2022-11-01T07:36:02.005Z,11.43
2022-11-01T07:38:32.101Z,8.70
2022-11-01T07:41:01.030Z,6.78
2022-11-01T07:43:29.593Z,7.47
2022-11-01T07:46:01.263Z,10.68
2022-11-01T07:48:29.632Z,10.88
2022-11-01T07:50:59.092Z,6.80
2022-11-01T07:53:31.743Z,6.03
2022-11-01T07:56:03.290Z,5.93
2022-11-01T07:58:31.446Z,5.18
2022-11-01T08:01:01.468Z,7.55
2022-11-01T08:03:30.819Z,8.75
2022-11-01T08:05:59.726Z,14.77
2022-11-01T08:08:28.280Z,4.57
2022-11-01T08:11:00.904Z,4.07
2022-11-01T08:13:30.089Z,5.18
2022-11-01T08:16:01.994Z,4.47
2022-11-01T08:18:31.140Z,6.85
2022-11-01T08:21:00.343Z,12.05
2022-11-01T08:23:30.100Z,8.55
2022-11-01T08:26:00.375Z,8.70
2022-11-01T08:28:30.529Z,3.38
2022-11-01T08:30:59.413Z,3.92
2022-11-01T08:33:27.812Z,3.53
2022-11-01T08:35:57.534Z,7.05
2022-11-01T08:40:54.368Z,3.85
2022-11-01T08:43:24.336Z,12.77
2022-11-01T08:45:52.821Z,3.42
2022-11-01T08:48:21.141Z,4.90
2022-11-01T08:50:49.497Z,6.68
2022-11-01T08:53:18.457Z,4.65
2022-11-01T08:58:20.473Z,5.35
2022-11-01T09:00:50.365Z,3.17
2022-11-01T09:03:19.060Z,4.72
2022-11-01T09:05:47.301Z,7.25
2022-11-01T09:08:15.769Z,6.97
2022-11-01T09:10:44.184Z,3.85
2022-11-01T09:13:12.706Z,4.65
2022-11-01T09:15:41.444Z,4.22
2022-11-01T09:18:11.209Z,11.83
2022-11-01T09:23:07.835Z,4.70
2022-11-01T09:25:37.418Z,5.25
2022-11-01T09:28:06.335Z,3.78
2022-11-01T09:30:36.961Z,2.45
2022-11-01T09:33:10.479Z,10.27
2022-11-01T09:35:40.449Z,6.85
2022-11-01T09:38:08.882Z,1.98
2022-11-01T09:40:46.630Z,2.40
2022-11-01T09:43:21.238Z,1.75
2022-11-01T09:45:52.627Z,2.20
2022-11-01T09:48:21.929Z,2.58
2022-11-01T09:50:51.543Z,1.20
2022-11-01T09:53:23.206Z,1.30
2022-11-01T09:55:56.141Z,2.50
2022-11-01T09:58:35.565Z,3.70
2022-11-01T10:01:17.122Z,1.15
2022-11-01T10:04:01.480Z,0.77
2022-11-01T10:06:36.331Z,1.52
2022-11-01T10:09:13.871Z,0.45
2022-11-01T10:11:59.101Z,1.80
2022-11-01T10:14:43.326Z,2.13
2022-11-01T10:17:15.519Z,0.68
2022-11-01T10:19:48.211Z,3.97
2022-11-01T10:22:19.805Z,0.55
2022-11-01T10:24:53.860Z,1.38
2022-11-01T10:27:33.059Z,0.65
2022-11-01T10:30:08.033Z,2.03
2022-11-01T10:32:44.591Z,1.70
2022-11-01T10:35:18.592Z,3.25
2022-11-01T10:38:11.306Z,1.08
2022-11-01T10:40:50.466Z,0.20
2022-11-01T10:43:22.886Z,2.13
2022-11-01T10:45:57.238Z,0.90
2022-11-01T10:48:32.619Z,1.13
2022-11-01T10:51:06.859Z,3.08
2022-11-01T10:53:39.894Z,4.30
2022-11-01T10:56:12.493Z,2.30
2022-11-01T10:58:50.589Z,0.63
2022-11-01T11:01:23.028Z,0.68
2022-11-01T11:03:53.421Z,0.52
2022-11-01T11:06:22.671Z,1.15
2022-11-01T11:08:55.666Z,1.77
2022-11-01T11:11:33.513Z,0.50
2022-11-01T11:14:06.966Z,1.67
2022-11-01T11:16:40.367Z,0.47
2022-11-01T11:19:21.167Z,0.93
2022-11-01T11:21:52.880Z,0.40
2022-11-01T11:24:26.115Z,0.55
2022-11-01T11:26:57.802Z,1.35
2022-11-01T11:29:39.951Z,2.63
2022-11-01T11:32:15.786Z,0.77
2022-11-01T11:34:45.619Z,0.75
2022-11-01T11:37:21.971Z,2.70
2022-11-01T11:40:19.947Z,0.00
2022-11-01T11:42:51.038Z,0.52
2022-11-01T11:45:24.108Z,1.92
2022-11-01T11:47:52.942Z,1.02
2022-11-01T11:50:33.480Z,0.90
2022-11-01T11:53:09.246Z,2.80
2022-11-01T11:55:44.963Z,1.67
2022-11-01T11:58:22.809Z,0.35
2022-11-01T12:00:55.391Z,1.52
2022-11-01T12:03:27.629Z,1.02
2022-11-01T12:05:59.858Z,3.15
2022-11-01T12:08:39.383Z,1.65
2022-11-01T12:11:09.255Z,2.55
2022-11-01T12:13:41.504Z,1.27
2022-11-01T12:16:17.924Z,4.05
2022-11-01T12:18:49.610Z,0.60
2022-11-01T12:21:21.852Z,1.48
2022-11-01T12:23:53.752Z,0.47
2022-11-01T12:26:26.748Z,2.05
2022-11-01T12:29:02.210Z,3.17
2022-11-01T12:31:31.869Z,2.40
2022-11-01T12:34:07.064Z,0.45
2022-11-01T12:36:45.315Z,2.42
2022-11-01T12:39:29.776Z,2.67
2022-11-01T12:42:03.804Z,0.40
2022-11-01T12:44:37.362Z,3.05
2022-11-01T12:47:11.933Z,0.82
2022-11-01T12:49:49.958Z,0.52
2022-11-01T12:52:27.747Z,3.03
2022-11-01T12:55:04.648Z,1.75
2022-11-01T12:57:35.747Z,5.20
2022-11-01T13:00:05.963Z,3.40
2022-11-01T13:02:51.969Z,1.58
2022-11-01T13:05:23.356Z,2.17
2022-11-01T13:08:03.530Z,1.35
2022-11-01T13:10:38.270Z,1.20
2022-11-01T13:13:18.704Z,0.75
2022-11-01T13:16:01.598Z,6.55
2022-11-01T13:18:49.834Z,3.28
2022-11-01T13:21:36.690Z,0.95
2022-11-01T13:24:13.317Z,0.70
2022-11-01T13:26:47.873Z,0.60
2022-11-01T13:29:21.824Z,2.38
2022-11-01T13:32:02.408Z,2.47
2022-11-01T13:34:44.764Z,2.00
2022-11-01T13:37:25.590Z,4.10
2022-11-01T13:40:07.420Z,3.42
2022-11-01T13:42:39.940Z,5.18
2022-11-01T13:45:51.972Z,6.30
2022-11-01T13:48:31.665Z,0.95
2022-11-01T13:53:46.249Z,4.63
2022-11-01T13:56:22.560Z,2.90
2022-11-01T13:58:52.200Z,1.20
2022-11-01T14:01:32.111Z,1.92
2022-11-01T14:04:45.522Z,2.92
2022-11-01T14:07:20.545Z,4.65
2022-11-01T14:09:51.046Z,1.52
2022-11-01T14:12:39.529Z,0.30
2022-11-01T14:15:20.296Z,1.80
2022-11-01T14:18:09.879Z,0.63
2022-11-01T14:23:52.728Z,1.42
2022-11-01T14:26:47.985Z,0.80
2022-11-01T14:29:17.492Z,1.60
2022-11-01T14:31:49.177Z,2.03
2022-11-01T14:34:35.807Z,6.13
2022-11-01T14:37:15.237Z,2.83
2022-11-01T14:39:52.802Z,2.53
2022-11-01T14:42:27.280Z,0.63
2022-11-01T14:45:00.076Z,1.63
2022-11-01T14:47:36.026Z,1.90
2022-11-01T14:50:16.557Z,4.53
2022-11-01T14:52:51.056Z,1.13
2022-11-01T14:55:24.066Z,2.13
2022-11-01T14:58:08.062Z,3.72
2022-11-01T15:00:37.161Z,0.57
2022-11-01T15:03:08.509Z,0.93
2022-11-01T15:05:46.897Z,2.25
2022-11-01T15:08:25.520Z,2.83
2022-11-01T15:10:57.281Z,2.47
2022-11-01T15:13:28.303Z,2.88
2022-11-01T15:16:09.996Z,3.40
2022-11-01T15:18:46.201Z,3.20
2022-11-01T15:21:22.108Z,2.40
2022-11-01T15:23:55.118Z,1.20
2022-11-01T15:26:26.790Z,1.52
2022-11-01T15:28:59.681Z,0.95
2022-11-01T15:31:29.074Z,2.70
2022-11-01T15:34:00.263Z,1.75
2022-11-01T15:36:33.506Z,3.30
2022-11-01T15:39:03.986Z,0.63
2022-11-01T15:41:35.113Z,2.35
2022-11-01T15:44:06.123Z,1.85
2022-11-01T15:46:40.533Z,2.40
2022-11-01T15:49:12.116Z,2.72
2022-11-01T15:51:49.547Z,7.15
2022-11-01T15:54:31.822Z,3.97
2022-11-01T15:57:06.386Z,1.75
2022-11-01T15:59:43.571Z,1.50
2022-11-01T16:02:19.800Z,3.28
2022-11-01T16:04:50.829Z,2.83
2022-11-01T16:07:22.663Z,3.88
2022-11-01T16:09:54.533Z,2.17
2022-11-01T16:12:25.800Z,1.83
2022-11-01T16:14:57.493Z,3.53
2022-11-01T16:17:33.076Z,5.80
2022-11-01T16:20:04.889Z,5.45
2022-11-01T16:22:48.172Z,3.55
2022-11-01T16:25:21.638Z,1.33
2022-11-01T16:28:00.521Z,4.97
2022-11-01T16:30:42.198Z,7.70
2022-11-01T16:33:23.755Z,3.00
2022-11-01T16:35:55.013Z,1.35
2022-11-01T16:38:43.316Z,1.67
2022-11-01T16:41:20.684Z,2.88
2022-11-01T16:43:51.079Z,1.15
2022-11-01T16:46:22.499Z,2.42
2022-11-01T16:48:56.531Z,0.95
2022-11-01T16:51:28.447Z,1.52
2022-11-01T16:54:00.224Z,2.72
2022-11-01T16:56:36.479Z,4.60
2022-11-01T16:59:11.496Z,4.60
2022-11-01T17:01:40.232Z,5.63
2022-11-01T17:04:13.577Z,2.08
2022-11-01T17:06:41.823Z,3.33
2022-11-01T17:09:16.457Z,4.63
2022-11-01T17:11:51.078Z,2.25
2022-11-01T17:14:21.701Z,6.13
2022-11-01T17:16:52.383Z,3.10
2022-11-01T17:19:25.678Z,2.60
2022-11-01T17:21:57.417Z,3.28
2022-11-01T17:24:29.026Z,4.63
2022-11-01T17:27:00.916Z,1.58
2022-11-01T17:29:29.464Z,1.52
2022-11-01T17:31:57.803Z,1.52
2022-11-01T17:34:28.671Z,1.63
2022-11-01T17:36:59.122Z,0.98
2022-11-01T17:39:30.146Z,1.30
2022-11-01T17:42:03.140Z,5.10
2022-11-01T17:44:31.445Z,3.17
2022-11-01T17:47:00.606Z,3.28
2022-11-01T17:49:28.958Z,3.70
2022-11-01T17:52:00.289Z,1.42
2022-11-01T17:54:30.902Z,3.58
2022-11-01T17:56:59.335Z,4.05
2022-11-01T17:59:27.722Z,2.13
2022-11-01T18:01:56.123Z,0.88
2022-11-01T18:04:24.602Z,1.65
2022-11-01T18:06:52.946Z,2.95
2022-11-01T18:09:24.451Z,2.22
2022-11-01T18:12:04.461Z,3.67
2022-11-01T18:14:49.303Z,4.00
2022-11-01T18:17:31.825Z,7.43
2022-11-01T18:20:05.033Z,5.05
2022-11-01T18:22:42.533Z,5.95
2022-11-01T18:25:25.466Z,7.30
2022-11-01T18:28:01.781Z,9.18
2022-11-01T18:30:30.882Z,10.50
2022-11-01T18:35:39.606Z,3.70
2022-11-01T18:38:17.977Z,5.07
2022-11-01T18:40:57.887Z,5.35
2022-11-01T18:43:34.394Z,4.53
2022-11-01T18:46:23.848Z,3.58
2022-11-01T18:48:59.320Z,4.18
2022-11-01T18:51:29.778Z,3.80
2022-11-01T18:54:14.188Z,3.75
2022-11-01T18:56:49.595Z,2.83
2022-11-01T18:59:29.240Z,3.78
2022-11-01T19:02:03.063Z,2.55
2022-11-01T19:04:35.720Z,1.92
2022-11-01T19:07:13.526Z,4.60
2022-11-01T19:09:55.516Z,1.85
2022-11-01T19:12:29.616Z,5.65
2022-11-01T19:15:03.373Z,7.18
2022-11-01T19:17:38.567Z,5.50
2022-11-01T19:20:22.247Z,3.58
2022-11-01T19:22:50.743Z,5.97
2022-11-01T19:25:23.689Z,3.00
2022-11-01T19:27:56.385Z,5.82
2022-11-01T19:30:29.666Z,6.45
2022-11-01T19:33:03.877Z,3.58
2022-11-01T19:35:32.981Z,1.73
2022-11-01T19:38:01.774Z,3.47
2022-11-01T19:40:35.022Z,2.77
2022-11-01T19:43:13.418Z,8.60
2022-11-01T19:45:47.260Z,4.22
2022-11-01T19:48:21.472Z,5.45
2022-11-01T19:50:50.646Z,7.40
2022-11-01T19:53:27.429Z,8.15
2022-11-01T19:56:01.007Z,5.47
2022-11-01T19:58:35.755Z,5.22
2022-11-01T20:01:34.976Z,5.05
2022-11-01T20:04:06.288Z,7.75
2022-11-01T20:06:37.354Z,3.15
2022-11-01T20:09:12.746Z,2.08
2022-11-01T20:11:41.540Z,1.73
2022-11-01T20:14:10.976Z,2.65
2022-11-01T20:16:43.893Z,1.50
2022-11-01T20:19:16.391Z,2.63
2022-11-01T20:21:47.074Z,1.20
2022-11-01T20:24:15.688Z,5.75
2022-11-01T20:26:44.745Z,4.90
2022-11-01T20:29:14.653Z,11.30
2022-11-01T20:31:45.112Z,21.30
2022-11-01T20:34:15.159Z,24.00
2022-11-01T20:37:02.246Z,22.50
2022-11-01T20:39:34.887Z,14.63
2022-11-01T20:42:04.582Z,13.57
2022-11-01T20:47:05.237Z,10.68
2022-11-01T20:49:36.424Z,5.38
2022-11-01T20:52:33.897Z,6.63
2022-11-01T20:54:55.887Z,9.82
2022-11-01T20:57:28.498Z,6.53
2022-11-01T20:59:57.373Z,8.98
2022-11-01T21:02:28.079Z,6.87
2022-11-01T21:05:01.892Z,8.27
2022-11-01T21:07:32.283Z,6.13
2022-11-01T21:10:00.778Z,7.97
2022-11-01T21:12:45.508Z,3.83
2022-11-01T21:15:37.406Z,6.90
2022-11-01T21:18:32.620Z,7.50
2022-11-01T21:21:22.297Z,3.97
2022-11-01T21:23:51.184Z,1.80
2022-11-01T21:26:30.825Z,3.60
2022-11-01T21:29:04.768Z,5.65
2022-11-01T21:31:39.863Z,5.13
2022-11-01T21:34:25.412Z,6.75
2022-11-01T21:36:57.740Z,5.30
2022-11-01T21:39:29.585Z,1.75
2022-11-01T21:41:59.407Z,0.90
2022-11-01T21:44:42.008Z,3.55
2022-11-01T21:47:19.283Z,11.15
2022-11-01T21:49:51.965Z,4.28
2022-11-01T21:52:24.031Z,6.70
2022-11-01T21:54:53.663Z,1.95
2022-11-01T21:57:22.522Z,4.63
2022-11-01T21:59:51.854Z,4.63
2022-11-01T22:02:20.166Z,4.28
2022-11-01T22:04:49.881Z,4.22
2022-11-01T22:07:18.527Z,2.50
2022-11-01T22:09:46.689Z,8.10
2022-11-01T22:12:15.829Z,2.00
2022-11-01T22:14:44.270Z,2.47
2022-11-01T22:17:13.716Z,2.67
2022-11-01T22:19:42.174Z,2.08
2022-11-01T22:22:13.331Z,4.53
2022-11-01T22:24:43.140Z,1.83
2022-11-01T22:27:12.190Z,2.88
2022-11-01T22:29:40.797Z,7.72
2022-11-01T22:32:09.801Z,1.65
2022-11-01T22:34:40.232Z,1.73
2022-11-01T22:37:13.574Z,1.08
2022-11-01T22:39:43.057Z,1.40
2022-11-01T22:42:15.472Z,2.08
2022-11-01T22:44:46.727Z,3.97
2022-11-01T22:47:24.376Z,10.82
2022-11-01T22:49:57.665Z,0.70
2022-11-01T22:52:33.045Z,2.28
2022-11-01T22:55:11.089Z,5.43
2022-11-01T22:57:45.921Z,2.17
2022-11-01T23:00:32.367Z,1.38
2022-11-01T23:03:12.211Z,0.88
2022-11-01T23:05:44.227Z,2.85
2022-11-01T23:08:24.410Z,1.70
2022-11-01T23:10:54.962Z,2.13
2022-11-01T23:13:44.181Z,4.40
2022-11-01T23:16:26.886Z,3.27
2022-11-01T23:18:58.777Z,0.50
2022-11-01T23:21:28.606Z,3.22
2022-11-01T23:24:00.860Z,5.30
2022-11-01T23:26:32.955Z,9.93
2022-11-01T23:29:03.738Z,2.67
2022-11-01T23:31:32.126Z,7.07
2022-11-01T23:34:00.729Z,2.22
2022-11-01T23:36:32.403Z,6.45
2022-11-01T23:39:10.041Z,6.30
2022-11-01T23:41:44.056Z,6.30
2022-11-01T23:44:26.916Z,2.42
2022-11-01T23:46:58.999Z,3.15
2022-11-01T23:49:31.046Z,2.67
2022-11-01T23:52:01.360Z,3.17
2022-11-01T23:54:38.777Z,2.45
2022-11-01T23:57:13.364Z,0.98
2022-11-01T23:59:41.990Z,1.65
